sensor_id;sensor_type;location;lat;lon;timestamp;pressure;altitude;pressure_sealevel;temperature;humidity
22653;BME280;11493;43.344;26.226;2023-05-20T00:01:06;99586.88;;;15.13;100.00
22653;BME280;11493;43.344;26.226;2023-05-20T00:03:33;99590.81;;;15.12;100.00
22653;BME280;11493;43.344;26.226;2023-05-20T00:06:00;99581.88;;;15.06;100.00
22653;BME280;11493;43.344;26.226;2023-05-20T00:08:27;99593.25;;;15.13;100.00
22653;BME280;11493;43.344;26.226;2023-05-20T00:10:54;99600.13;;;15.07;100.00
22653;BME280;11493;43.344;26.226;2023-05-20T00:13:21;99597.22;;;15.04;100.00
22653;BME280;11493;43.344;26.226;2023-05-20T00:15:51;99590.13;;;14.94;100.00
22653;BME280;11493;43.344;26.226;2023-05-20T00:18:19;99584.31;;;14.87;100.00
22653;BME280;11493;43.344;26.226;2023-05-20T00:20:46;99593.78;;;14.86;100.00
22653;BME280;11493;43.344;26.226;2023-05-20T00:23:13;99596.63;;;14.77;100.00
22653;BME280;11493;43.344;26.226;2023-05-20T00:25:40;99573.38;;;14.70;100.00
22653;BME280;11493;43.344;26.226;2023-05-20T00:28:07;99575.19;;;14.66;100.00
22653;BME280;11493;43.344;26.226;2023-05-20T00:30:34;99575.88;;;14.63;100.00
22653;BME280;11493;43.344;26.226;2023-05-20T00:33:01;99578.63;;;14.63;100.00
22653;BME280;11493;43.344;26.226;2023-05-20T00:35:28;99578.50;;;14.59;100.00
22653;BME280;11493;43.344;26.226;2023-05-20T00:37:55;99582.28;;;14.55;100.00
22653;BME280;11493;43.344;26.226;2023-05-20T00:40:22;99579.69;;;14.50;100.00
22653;BME280;11493;43.344;26.226;2023-05-20T00:42:50;99557.28;;;14.34;100.00
22653;BME280;11493;43.344;26.226;2023-05-20T00:45:17;99575.66;;;14.38;100.00
22653;BME280;11493;43.344;26.226;2023-05-20T00:47:44;99562.66;;;14.30;100.00
22653;BME280;11493;43.344;26.226;2023-05-20T00:50:11;99562.34;;;14.32;100.00
22653;BME280;11493;43.344;26.226;2023-05-20T00:52:39;99563.00;;;14.29;100.00
22653;BME280;11493;43.344;26.226;2023-05-20T00:55:09;99562.34;;;14.32;100.00
22653;BME280;11493;43.344;26.226;2023-05-20T00:57:36;99560.75;;;14.22;100.00
22653;BME280;11493;43.344;26.226;2023-05-20T01:00:04;99559.59;;;14.23;100.00
22653;BME280;11493;43.344;26.226;2023-05-20T01:02:33;99557.19;;;14.22;100.00
22653;BME280;11493;43.344;26.226;2023-05-20T01:05:01;99548.59;;;14.14;100.00
22653;BME280;11493;43.344;26.226;2023-05-20T01:07:28;99551.50;;;14.18;100.00
22653;BME280;11493;43.344;26.226;2023-05-20T01:09:55;99539.22;;;14.07;100.00
22653;BME280;11493;43.344;26.226;2023-05-20T01:12:26;99548.50;;;14.02;100.00
22653;BME280;11493;43.344;26.226;2023-05-20T01:15:11;99553.41;;;13.97;100.00
22653;BME280;11493;43.344;26.226;2023-05-20T01:17:39;99564.00;;;13.95;100.00
22653;BME280;11493;43.344;26.226;2023-05-20T01:20:12;99534.41;;;13.87;100.00
22653;BME280;11493;43.344;26.226;2023-05-20T01:22:47;99554.56;;;13.96;100.00
22653;BME280;11493;43.344;26.226;2023-05-20T01:25:15;99546.25;;;13.96;100.00
22653;BME280;11493;43.344;26.226;2023-05-20T01:27:45;99526.75;;;13.92;100.00
22653;BME280;11493;43.344;26.226;2023-05-20T01:30:12;99535.34;;;13.99;100.00
22653;BME280;11493;43.344;26.226;2023-05-20T01:32:57;99528.03;;;13.95;100.00
22653;BME280;11493;43.344;26.226;2023-05-20T01:35:24;99530.28;;;14.01;100.00
22653;BME280;11493;43.344;26.226;2023-05-20T01:37:52;99539.06;;;14.03;100.00
22653;BME280;11493;43.344;26.226;2023-05-20T01:40:21;99531.91;;;14.02;100.00
22653;BME280;11493;43.344;26.226;2023-05-20T01:42:50;99535.97;;;14.05;100.00
22653;BME280;11493;43.344;26.226;2023-05-20T01:45:19;99538.88;;;14.08;100.00
22653;BME280;11493;43.344;26.226;2023-05-20T01:47:47;99533.69;;;14.07;100.00
22653;BME280;11493;43.344;26.226;2023-05-20T01:50:15;99532.94;;;14.19;100.00
22653;BME280;11493;43.344;26.226;2023-05-20T01:52:42;99544.16;;;14.22;100.00
22653;BME280;11493;43.344;26.226;2023-05-20T01:55:09;99541.19;;;14.27;100.00
22653;BME280;11493;43.344;26.226;2023-05-20T01:57:36;99530.78;;;14.24;100.00
22653;BME280;11493;43.344;26.226;2023-05-20T02:00:04;99540.03;;;14.28;100.00
22653;BME280;11493;43.344;26.226;2023-05-20T02:02:38;99548.63;;;14.35;100.00
22653;BME280;11493;43.344;26.226;2023-05-20T02:05:08;99547.50;;;14.36;100.00
22653;BME280;11493;43.344;26.226;2023-05-20T02:07:35;99544.25;;;14.34;100.00
22653;BME280;11493;43.344;26.226;2023-05-20T02:10:03;99556.59;;;14.45;100.00
22653;BME280;11493;43.344;26.226;2023-05-20T02:12:30;99557.34;;;14.55;100.00
22653;BME280;11493;43.344;26.226;2023-05-20T02:14:57;99546.81;;;14.48;100.00
22653;BME280;11493;43.344;26.226;2023-05-20T02:17:24;99555.25;;;14.52;100.00
22653;BME280;11493;43.344;26.226;2023-05-20T02:19:52;99569.66;;;14.66;100.00
22653;BME280;11493;43.344;26.226;2023-05-20T02:22:19;99566.75;;;14.62;100.00
22653;BME280;11493;43.344;26.226;2023-05-20T02:24:46;99559.31;;;14.54;100.00
22653;BME280;11493;43.344;26.226;2023-05-20T02:27:14;99563.56;;;14.52;100.00
22653;BME280;11493;43.344;26.226;2023-05-20T02:29:42;99538.03;;;14.37;100.00
22653;BME280;11493;43.344;26.226;2023-05-20T02:32:10;99570.09;;;14.47;100.00
22653;BME280;11493;43.344;26.226;2023-05-20T02:34:38;99571.25;;;14.46;100.00
22653;BME280;11493;43.344;26.226;2023-05-20T02:37:05;99556.59;;;14.45;100.00
22653;BME280;11493;43.344;26.226;2023-05-20T02:39:32;99549.94;;;14.38;100.00
22653;BME280;11493;43.344;26.226;2023-05-20T02:41:59;99559.72;;;14.35;100.00
22653;BME280;11493;43.344;26.226;2023-05-20T02:44:26;99567.66;;;14.45;100.00
22653;BME280;11493;43.344;26.226;2023-05-20T02:46:53;99559.53;;;14.40;100.00
22653;BME280;11493;43.344;26.226;2023-05-20T02:49:20;99554.97;;;14.44;100.00
22653;BME280;11493;43.344;26.226;2023-05-20T02:51:47;99557.09;;;14.39;100.00
22653;BME280;11493;43.344;26.226;2023-05-20T02:54:15;99555.47;;;14.38;100.00
22653;BME280;11493;43.344;26.226;2023-05-20T02:56:42;99560.50;;;14.44;100.00
22653;BME280;11493;43.344;26.226;2023-05-20T02:59:09;99552.34;;;14.39;100.00
22653;BME280;11493;43.344;26.226;2023-05-20T03:01:37;99567.66;;;14.45;100.00
22653;BME280;11493;43.344;26.226;2023-05-20T03:04:06;99574.00;;;14.46;100.00
22653;BME280;11493;43.344;26.226;2023-05-20T03:06:35;99569.56;;;14.54;100.00
22653;BME280;11493;43.344;26.226;2023-05-20T03:09:03;99558.84;;;14.52;100.00
22653;BME280;11493;43.344;26.226;2023-05-20T03:11:31;99571.53;;;14.53;100.00
22653;BME280;11493;43.344;26.226;2023-05-20T03:13:58;99568.09;;;14.56;100.00
22653;BME280;11493;43.344;26.226;2023-05-20T03:16:25;99564.03;;;14.54;100.00
22653;BME280;11493;43.344;26.226;2023-05-20T03:18:54;99555.25;;;14.52;100.00
22653;BME280;11493;43.344;26.226;2023-05-20T03:21:21;99566.63;;;14.59;100.00
22653;BME280;11493;43.344;26.226;2023-05-20T03:23:49;99576.34;;;14.65;100.00
22653;BME280;11493;43.344;26.226;2023-05-20T03:26:17;99565.13;;;14.61;100.00
22653;BME280;11493;43.344;26.226;2023-05-20T03:28:44;99577.31;;;14.69;100.00
22653;BME280;11493;43.344;26.226;2023-05-20T03:31:12;99571.28;;;14.67;100.00
22653;BME280;11493;43.344;26.226;2023-05-20T03:33:39;99583.78;;;14.73;100.00
22653;BME280;11493;43.344;26.226;2023-05-20T03:36:06;99588.00;;;14.79;100.00
22653;BME280;11493;43.344;26.226;2023-05-20T03:38:33;99565.53;;;14.72;100.00
22653;BME280;11493;43.344;26.226;2023-05-20T03:41:00;99569.81;;;14.69;100.00
22653;BME280;11493;43.344;26.226;2023-05-20T03:43:27;99571.56;;;14.74;100.00
22653;BME280;11493;43.344;26.226;2023-05-20T03:45:55;99588.94;;;14.83;100.00
22653;BME280;11493;43.344;26.226;2023-05-20T03:48:22;99589.75;;;14.84;100.00
22653;BME280;11493;43.344;26.226;2023-05-20T03:50:49;99567.78;;;14.78;100.00
22653;BME280;11493;43.344;26.226;2023-05-20T03:53:16;99568.25;;;14.81;100.00
22653;BME280;11493;43.344;26.226;2023-05-20T03:55:45;99590.47;;;14.93;100.00
22653;BME280;11493;43.344;26.226;2023-05-20T03:58:13;99581.16;;;14.97;100.00
22653;BME280;11493;43.344;26.226;2023-05-20T04:00:41;99580.94;;;15.02;100.00
22653;BME280;11493;43.344;26.226;2023-05-20T04:03:08;99574.13;;;15.00;100.00
22653;BME280;11493;43.344;26.226;2023-05-20T04:05:36;99575.75;;;15.01;100.00
22653;BME280;11493;43.344;26.226;2023-05-20T04:08:10;99587.63;;;15.01;100.00
22653;BME280;11493;43.344;26.226;2023-05-20T04:10:42;99588.44;;;15.02;100.00
22653;BME280;11493;43.344;26.226;2023-05-20T04:13:10;99576.88;;;15.00;100.00
22653;BME280;11493;43.344;26.226;2023-05-20T04:15:37;99586.75;;;15.09;100.00
22653;BME280;11493;43.344;26.226;2023-05-20T04:18:04;99590.94;;;15.16;100.00
22653;BME280;11493;43.344;26.226;2023-05-20T04:20:32;99594.19;;;15.18;100.00
22653;BME280;11493;43.344;26.226;2023-05-20T04:22:59;99583.91;;;15.18;100.00
22653;BME280;11493;43.344;26.226;2023-05-20T04:25:26;99582.16;;;15.13;100.00
22653;BME280;11493;43.344;26.226;2023-05-20T04:27:54;99596.06;;;15.26;100.00
22653;BME280;11493;43.344;26.226;2023-05-20T04:30:23;99605.34;;;15.30;100.00
22653;BME280;11493;43.344;26.226;2023-05-20T04:32:51;99601.34;;;15.39;100.00
22653;BME280;11493;43.344;26.226;2023-05-20T04:35:19;99605.66;;;15.49;100.00
22653;BME280;11493;43.344;26.226;2023-05-20T04:37:48;99613.59;;;15.59;100.00
22653;BME280;11493;43.344;26.226;2023-05-20T04:40:17;99598.53;;;15.60;100.00
22653;BME280;11493;43.344;26.226;2023-05-20T04:42:45;99610.63;;;15.76;100.00
22653;BME280;11493;43.344;26.226;2023-05-20T04:45:12;99596.53;;;15.82;100.00
22653;BME280;11493;43.344;26.226;2023-05-20T04:47:40;99606.84;;;15.93;100.00
22653;BME280;11493;43.344;26.226;2023-05-20T04:50:09;99594.72;;;15.98;100.00
22653;BME280;11493;43.344;26.226;2023-05-20T04:52:40;99609.31;;;16.07;100.00
22653;BME280;11493;43.344;26.226;2023-05-20T04:55:12;99609.19;;;16.16;100.00
22653;BME280;11493;43.344;26.226;2023-05-20T04:57:39;99613.28;;;16.30;100.00
22653;BME280;11493;43.344;26.226;2023-05-20T05:00:11;99608.72;;;16.38;100.00
22653;BME280;11493;43.344;26.226;2023-05-20T05:02:39;99624.25;;;16.63;100.00
22653;BME280;11493;43.344;26.226;2023-05-20T05:05:07;99631.81;;;16.75;100.00
22653;BME280;11493;43.344;26.226;2023-05-20T05:07:34;99627.50;;;16.78;100.00
22653;BME280;11493;43.344;26.226;2023-05-20T05:10:01;99637.13;;;16.80;100.00
22653;BME280;11493;43.344;26.226;2023-05-20T05:12:30;99649.75;;;16.78;100.00
22653;BME280;11493;43.344;26.226;2023-05-20T05:14:58;99652.19;;;16.79;100.00
22653;BME280;11493;43.344;26.226;2023-05-20T05:17:26;99645.22;;;16.73;100.00
22653;BME280;11493;43.344;26.226;2023-05-20T05:19:56;99655.88;;;16.71;100.00
22653;BME280;11493;43.344;26.226;2023-05-20T05:22:25;99652.53;;;16.65;100.00
22653;BME280;11493;43.344;26.226;2023-05-20T05:24:52;99648.44;;;16.63;100.00
22653;BME280;11493;43.344;26.226;2023-05-20T05:27:21;99659.59;;;16.75;100.00
22653;BME280;11493;43.344;26.226;2023-05-20T05:29:49;99654.16;;;16.79;100.00
22653;BME280;11493;43.344;26.226;2023-05-20T05:32:17;99654.72;;;16.84;100.00
22653;BME280;11493;43.344;26.226;2023-05-20T05:34:44;99652.06;;;16.88;100.00
22653;BME280;11493;43.344;26.226;2023-05-20T05:37:11;99653.69;;;16.89;100.00
22653;BME280;11493;43.344;26.226;2023-05-20T05:39:38;99652.41;;;16.98;100.00
22653;BME280;11493;43.344;26.226;2023-05-20T05:42:05;99656.44;;;17.01;100.00
22653;BME280;11493;43.344;26.226;2023-05-20T05:44:34;99660.72;;;16.98;100.00
22653;BME280;11493;43.344;26.226;2023-05-20T05:47:03;99672.66;;;16.99;100.00
22653;BME280;11493;43.344;26.226;2023-05-20T05:49:32;99655.16;;;16.98;100.00
22653;BME280;11493;43.344;26.226;2023-05-20T05:51:59;99650.31;;;16.95;100.00
22653;BME280;11493;43.344;26.226;2023-05-20T05:54:27;99657.00;;;17.06;100.00
22653;BME280;11493;43.344;26.226;2023-05-20T05:56:55;99652.34;;;17.11;100.00
22653;BME280;11493;43.344;26.226;2023-05-20T05:59:27;99636.19;;;17.00;100.00
22653;BME280;11493;43.344;26.226;2023-05-20T06:01:54;99638.25;;;17.03;100.00
22653;BME280;11493;43.344;26.226;2023-05-20T06:04:21;99665.78;;;17.08;100.00
22653;BME280;11493;43.344;26.226;2023-05-20T06:06:51;99642.53;;;17.01;100.00
22653;BME280;11493;43.344;26.226;2023-05-20T06:09:18;99642.53;;;17.01;100.00
22653;BME280;11493;43.344;26.226;2023-05-20T06:11:46;99655.47;;;17.09;100.00
22653;BME280;11493;43.344;26.226;2023-05-20T06:14:13;99633.16;;;16.93;100.00
22653;BME280;11493;43.344;26.226;2023-05-20T06:16:40;99663.28;;;17.03;100.00
22653;BME280;11493;43.344;26.226;2023-05-20T06:19:07;99665.47;;;16.98;100.00
22653;BME280;11493;43.344;26.226;2023-05-20T06:21:35;99667.00;;;16.95;100.00
22653;BME280;11493;43.344;26.226;2023-05-20T06:24:03;99663.75;;;16.93;100.00
22653;BME280;11493;43.344;26.226;2023-05-20T06:26:31;99665.38;;;16.94;100.00
22653;BME280;11493;43.344;26.226;2023-05-20T06:28:59;99656.09;;;16.90;100.00
22653;BME280;11493;43.344;26.226;2023-05-20T06:31:26;99650.78;;;16.97;100.00
22653;BME280;11493;43.344;26.226;2023-05-20T06:33:53;99657.72;;;17.03;100.00
22653;BME280;11493;43.344;26.226;2023-05-20T06:36:20;99654.44;;;17.14;100.00
22653;BME280;11493;43.344;26.226;2023-05-20T06:38:48;99635.06;;;17.17;100.00
22653;BME280;11493;43.344;26.226;2023-05-20T06:41:15;99647.88;;;17.34;100.00
22653;BME280;11493;43.344;26.226;2023-05-20T06:43:42;99647.88;;;17.34;100.00
22653;BME280;11493;43.344;26.226;2023-05-20T06:46:29;99656.91;;;17.43;100.00
22653;BME280;11493;43.344;26.226;2023-05-20T06:49:03;99652.25;;;17.47;100.00
22653;BME280;11493;43.344;26.226;2023-05-20T06:51:30;99658.84;;;17.55;100.00
22653;BME280;11493;43.344;26.226;2023-05-20T06:53:59;99645.94;;;17.62;100.00
22653;BME280;11493;43.344;26.226;2023-05-20T06:56:26;99666.13;;;17.71;100.00
22653;BME280;11493;43.344;26.226;2023-05-20T06:58:54;99661.00;;;17.73;100.00
22653;BME280;11493;43.344;26.226;2023-05-20T07:01:21;99652.19;;;17.71;100.00
22653;BME280;11493;43.344;26.226;2023-05-20T07:03:48;99654.06;;;17.67;100.00
22653;BME280;11493;43.344;26.226;2023-05-20T07:06:16;99658.00;;;17.66;100.00
22653;BME280;11493;43.344;26.226;2023-05-20T07:08:43;99661.03;;;17.61;100.00
22653;BME280;11493;43.344;26.226;2023-05-20T07:11:11;99656.06;;;17.55;100.00
22653;BME280;11493;43.344;26.226;2023-05-20T07:13:38;99658.50;;;17.56;100.00
22653;BME280;11493;43.344;26.226;2023-05-20T07:16:05;99655.47;;;17.61;100.00
22653;BME280;11493;43.344;26.226;2023-05-20T07:18:35;99659.63;;;17.67;100.00
22653;BME280;11493;43.344;26.226;2023-05-20T07:21:02;99648.72;;;17.75;100.00
22653;BME280;11493;43.344;26.226;2023-05-20T07:23:37;99653.38;;;17.86;100.00
22653;BME280;11493;43.344;26.226;2023-05-20T07:26:05;99627.53;;;17.86;100.00
22653;BME280;11493;43.344;26.226;2023-05-20T07:28:33;99631.66;;;17.92;100.00
22653;BME280;11493;43.344;26.226;2023-05-20T07:31:02;99637.53;;;18.02;100.00
22653;BME280;11493;43.344;26.226;2023-05-20T07:33:33;99626.09;;;17.92;100.00
22653;BME280;11493;43.344;26.226;2023-05-20T07:36:00;99632.13;;;17.94;100.00
22653;BME280;11493;43.344;26.226;2023-05-20T07:38:27;99636.00;;;18.05;100.00
22653;BME280;11493;43.344;26.226;2023-05-20T07:40:58;99617.94;;;17.99;100.00
22653;BME280;11493;43.344;26.226;2023-05-20T07:43:26;99631.78;;;18.11;100.00
22653;BME280;11493;43.344;26.226;2023-05-20T07:45:53;99622.97;;;18.09;100.00
22653;BME280;11493;43.344;26.226;2023-05-20T07:48:20;99621.34;;;18.08;100.00
22653;BME280;11493;43.344;26.226;2023-05-20T07:50:47;99615.69;;;18.04;100.00
22653;BME280;11493;43.344;26.226;2023-05-20T07:53:15;99617.47;;;17.97;100.00
22653;BME280;11493;43.344;26.226;2023-05-20T07:55:43;99611.66;;;18.02;100.00
22653;BME280;11493;43.344;26.226;2023-05-20T07:58:10;99611.00;;;17.93;100.00
22653;BME280;11493;43.344;26.226;2023-05-20T08:00:37;99589.66;;;17.81;100.00
22653;BME280;11493;43.344;26.226;2023-05-20T08:03:06;99604.38;;;17.82;100.00
22653;BME280;11493;43.344;26.226;2023-05-20T08:05:48;99598.34;;;17.80;100.00
22653;BME280;11493;43.344;26.226;2023-05-20T08:08:15;99615.41;;;17.78;100.00
22653;BME280;11493;43.344;26.226;2023-05-20T08:10:51;99597.91;;;17.78;100.00
22653;BME280;11493;43.344;26.226;2023-05-20T08:13:21;99596.28;;;17.77;100.00
22653;BME280;11493;43.344;26.226;2023-05-20T08:15:48;99589.91;;;17.76;100.00
22653;BME280;11493;43.344;26.226;2023-05-20T08:18:15;99585.31;;;17.84;100.00
22653;BME280;11493;43.344;26.226;2023-05-20T08:20:42;99589.72;;;18.00;100.00
22653;BME280;11493;43.344;26.226;2023-05-20T08:23:09;99593.88;;;18.06;100.00
22653;BME280;11493;43.344;26.226;2023-05-20T08:25:37;99587.50;;;18.06;100.00
22653;BME280;11493;43.344;26.226;2023-05-20T08:28:06;99594.88;;;18.14;100.00
22653;BME280;11493;43.344;26.226;2023-05-20T08:30:35;99587.16;;;18.23;100.00
22653;BME280;11493;43.344;26.226;2023-05-20T08:33:03;99589.31;;;18.30;100.00
22653;BME280;11493;43.344;26.226;2023-05-20T08:35:30;99595.75;;;18.50;100.00
22653;BME280;11493;43.344;26.226;2023-05-20T08:37:58;99599.69;;;18.64;100.00
22653;BME280;11493;43.344;26.226;2023-05-20T08:40:25;99603.63;;;18.79;100.00
22653;BME280;11493;43.344;26.226;2023-05-20T08:42:53;99588.75;;;18.91;100.00
22653;BME280;11493;43.344;26.226;2023-05-20T08:45:22;99597.53;;;19.09;100.00
22653;BME280;11493;43.344;26.226;2023-05-20T08:47:59;99604.44;;;19.15;100.00
22653;BME280;11493;43.344;26.226;2023-05-20T08:50:26;99609.81;;;19.23;100.00
22653;BME280;11493;43.344;26.226;2023-05-20T08:52:54;99613.56;;;19.31;100.00
22653;BME280;11493;43.344;26.226;2023-05-20T08:55:24;99615.59;;;19.34;100.00
22653;BME280;11493;43.344;26.226;2023-05-20T08:57:55;99624.72;;;19.31;100.00
22653;BME280;11493;43.344;26.226;2023-05-20T09:00:23;99621.41;;;19.45;100.00
22653;BME280;11493;43.344;26.226;2023-05-20T09:02:55;99616.22;;;19.62;100.00
22653;BME280;11493;43.344;26.226;2023-05-20T09:05:25;99619.34;;;19.80;100.00
22653;BME280;11493;43.344;26.226;2023-05-20T09:08:06;99620.59;;;19.83;99.97
22653;BME280;11493;43.344;26.226;2023-05-20T09:10:35;99630.66;;;19.87;97.62
22653;BME280;11493;43.344;26.226;2023-05-20T09:13:05;99623.31;;;19.79;95.49
22653;BME280;11493;43.344;26.226;2023-05-20T09:15:33;99628.91;;;19.79;94.01
22653;BME280;11493;43.344;26.226;2023-05-20T09:18:03;99630.00;;;19.94;93.76
22653;BME280;11493;43.344;26.226;2023-05-20T09:20:33;99617.44;;;19.84;93.55
22653;BME280;11493;43.344;26.226;2023-05-20T09:23:02;99626.91;;;19.99;93.57
22653;BME280;11493;43.344;26.226;2023-05-20T09:25:30;99623.66;;;19.97;91.36
22653;BME280;11493;43.344;26.226;2023-05-20T09:27:57;99621.41;;;20.06;90.99
22653;BME280;11493;43.344;26.226;2023-05-20T09:30:24;99638.56;;;20.27;91.32
22653;BME280;11493;43.344;26.226;2023-05-20T09:32:56;99630.75;;;20.37;87.81
22653;BME280;11493;43.344;26.226;2023-05-20T09:35:23;99632.34;;;20.38;88.47
22653;BME280;11493;43.344;26.226;2023-05-20T09:37:53;99616.59;;;20.49;86.79
22653;BME280;11493;43.344;26.226;2023-05-20T09:40:25;99620.94;;;20.69;83.72
22653;BME280;11493;43.344;26.226;2023-05-20T09:42:56;99627.59;;;20.87;82.55
22653;BME280;11493;43.344;26.226;2023-05-20T09:45:23;99620.38;;;20.86;82.75
22653;BME280;11493;43.344;26.226;2023-05-20T09:47:50;99608.66;;;21.04;82.04
22653;BME280;11493;43.344;26.226;2023-05-20T09:50:19;99612.16;;;20.97;83.84
22653;BME280;11493;43.344;26.226;2023-05-20T09:52:48;99611.75;;;20.98;83.89
22653;BME280;11493;43.344;26.226;2023-05-20T09:55:16;99606.69;;;21.08;84.45
22653;BME280;11493;43.344;26.226;2023-05-20T09:57:45;99615.94;;;21.12;80.54
22653;BME280;11493;43.344;26.226;2023-05-20T10:00:13;99607.41;;;21.01;82.01
22653;BME280;11493;43.344;26.226;2023-05-20T10:02:44;99603.16;;;21.11;83.14
22653;BME280;11493;43.344;26.226;2023-05-20T10:05:29;99595.03;;;21.28;81.20
22653;BME280;11493;43.344;26.226;2023-05-20T10:10:49;99598.84;;;21.17;79.58
22653;BME280;11493;43.344;26.226;2023-05-20T10:13:53;99589.91;;;21.34;77.71
22653;BME280;11493;43.344;26.226;2023-05-20T10:19:35;99586.13;;;21.53;76.74
22653;BME280;11493;43.344;26.226;2023-05-20T10:22:07;99593.34;;;21.57;75.24
22653;BME280;11493;43.344;26.226;2023-05-20T10:24:39;99571.47;;;21.67;74.87
22653;BME280;11493;43.344;26.226;2023-05-20T10:27:08;99587.13;;;21.71;73.74
22653;BME280;11493;43.344;26.226;2023-05-20T10:29:49;99577.34;;;21.91;73.36
22653;BME280;11493;43.344;26.226;2023-05-20T10:32:31;99565.00;;;22.00;74.95
22653;BME280;11493;43.344;26.226;2023-05-20T10:35:08;99572.34;;;22.11;72.24
22653;BME280;11493;43.344;26.226;2023-05-20T10:37:41;99572.09;;;22.30;71.20
22653;BME280;11493;43.344;26.226;2023-05-20T10:40:10;99568.88;;;22.28;69.71
22653;BME280;11493;43.344;26.226;2023-05-20T10:42:38;99559.44;;;22.51;72.20
22653;BME280;11493;43.344;26.226;2023-05-20T10:45:06;99545.88;;;22.60;71.00
22653;BME280;11493;43.344;26.226;2023-05-20T10:47:34;99548.78;;;22.74;71.02
22653;BME280;11493;43.344;26.226;2023-05-20T10:50:03;99553.75;;;22.40;72.84
22653;BME280;11493;43.344;26.226;2023-05-20T10:52:35;99540.59;;;22.48;70.57
22653;BME280;11493;43.344;26.226;2023-05-20T10:55:03;99549.63;;;22.78;68.99
22653;BME280;11493;43.344;26.226;2023-05-20T10:57:30;99545.72;;;22.93;71.31
22653;BME280;11493;43.344;26.226;2023-05-20T10:59:58;99545.00;;;23.11;70.40
22653;BME280;11493;43.344;26.226;2023-05-20T11:02:26;99536.22;;;23.23;68.83
22653;BME280;11493;43.344;26.226;2023-05-20T11:04:55;99539.28;;;22.89;70.37
22653;BME280;11493;43.344;26.226;2023-05-20T11:07:29;99510.03;;;22.87;71.21
22653;BME280;11493;43.344;26.226;2023-05-20T11:09:57;99527.34;;;23.10;69.27
22653;BME280;11493;43.344;26.226;2023-05-20T11:12:25;99522.34;;;22.75;69.69
22653;BME280;11493;43.344;26.226;2023-05-20T11:14:53;99520.69;;;22.67;70.87
22653;BME280;11493;43.344;26.226;2023-05-20T11:17:20;99504.47;;;23.05;71.43
22653;BME280;11493;43.344;26.226;2023-05-20T11:19:49;99513.78;;;23.30;68.73
22653;BME280;11493;43.344;26.226;2023-05-20T11:22:16;99504.16;;;23.24;68.49
22653;BME280;11493;43.344;26.226;2023-05-20T11:24:43;99500.97;;;23.29;69.40
22653;BME280;11493;43.344;26.226;2023-05-20T11:27:10;99488.81;;;22.97;68.85
22653;BME280;11493;43.344;26.226;2023-05-20T11:29:37;99484.44;;;23.13;69.31
22653;BME280;11493;43.344;26.226;2023-05-20T11:32:06;99486.84;;;23.11;69.98
22653;BME280;11493;43.344;26.226;2023-05-20T11:34:37;99485.88;;;22.75;70.72
22653;BME280;11493;43.344;26.226;2023-05-20T11:37:08;99479.19;;;22.90;71.29
22653;BME280;11493;43.344;26.226;2023-05-20T11:39:36;99480.91;;;23.31;68.74
22653;BME280;11493;43.344;26.226;2023-05-20T11:42:03;99470.13;;;23.47;67.27
22653;BME280;11493;43.344;26.226;2023-05-20T11:44:32;99476.16;;;23.52;67.64
22653;BME280;11493;43.344;26.226;2023-05-20T11:47:00;99471.78;;;23.58;67.53
22653;BME280;11493;43.344;26.226;2023-05-20T11:49:28;99464.91;;;23.52;67.60
22653;BME280;11493;43.344;26.226;2023-05-20T11:51:56;99460.16;;;23.71;66.33
22653;BME280;11493;43.344;26.226;2023-05-20T11:54:27;99460.13;;;24.10;66.66
22653;BME280;11493;43.344;26.226;2023-05-20T11:56:54;99447.28;;;23.84;66.40
22653;BME280;11493;43.344;26.226;2023-05-20T11:59:23;99460.16;;;23.60;65.34
22653;BME280;11493;43.344;26.226;2023-05-20T12:01:50;99446.50;;;23.98;66.37
22653;BME280;11493;43.344;26.226;2023-05-20T12:04:17;99440.47;;;23.99;65.86
22653;BME280;11493;43.344;26.226;2023-05-20T12:06:45;99437.66;;;24.17;66.43
22653;BME280;11493;43.344;26.226;2023-05-20T12:09:12;99431.63;;;24.22;66.64
22653;BME280;11493;43.344;26.226;2023-05-20T12:11:40;99421.63;;;23.71;67.80
22653;BME280;11493;43.344;26.226;2023-05-20T12:14:08;99412.00;;;23.69;68.90
22653;BME280;11493;43.344;26.226;2023-05-20T12:16:36;99410.75;;;23.84;68.42
22653;BME280;11493;43.344;26.226;2023-05-20T12:19:03;99406.75;;;23.92;68.36
22653;BME280;11493;43.344;26.226;2023-05-20T12:21:31;99403.13;;;23.84;67.27
22653;BME280;11493;43.344;26.226;2023-05-20T12:23:58;99399.50;;;24.16;67.75
22653;BME280;11493;43.344;26.226;2023-05-20T12:26:26;99398.19;;;24.52;65.70
22653;BME280;11493;43.344;26.226;2023-05-20T12:28:54;99389.19;;;24.97;63.08
22653;BME280;11493;43.344;26.226;2023-05-20T12:31:22;99393.81;;;25.28;62.87
22653;BME280;11493;43.344;26.226;2023-05-20T12:33:49;99388.81;;;25.53;62.20
22653;BME280;11493;43.344;26.226;2023-05-20T12:36:17;99380.91;;;25.34;60.05
22653;BME280;11493;43.344;26.226;2023-05-20T12:38:45;99389.75;;;25.33;57.01
22653;BME280;11493;43.344;26.226;2023-05-20T12:41:13;99374.31;;;24.96;58.52
22653;BME280;11493;43.344;26.226;2023-05-20T12:43:40;99395.84;;;24.40;60.45
22653;BME280;11493;43.344;26.226;2023-05-20T12:46:07;99414.78;;;23.86;59.81
22653;BME280;11493;43.344;26.226;2023-05-20T12:48:34;99413.50;;;23.27;61.44
22653;BME280;11493;43.344;26.226;2023-05-20T12:51:02;99424.38;;;22.38;64.32
22653;BME280;11493;43.344;26.226;2023-05-20T12:53:30;99440.22;;;21.65;67.98
22653;BME280;11493;43.344;26.226;2023-05-20T12:55:57;99484.56;;;20.59;80.17